createdAt,value
2023-03-04T00:02:16.314Z,55.94
2023-03-04T00:04:43.013Z,56.16
2023-03-04T00:07:09.559Z,55.89
2023-03-04T00:09:36.472Z,55.88
2023-03-04T00:12:03.106Z,56.10
2023-03-04T00:14:30.588Z,56.30
2023-03-04T00:16:57.341Z,55.73
2023-03-04T00:19:23.979Z,55.96
2023-03-04T00:21:50.521Z,56.16
2023-03-04T00:24:17.174Z,56.32
2023-03-04T00:26:43.923Z,57.39
2023-03-04T00:29:10.900Z,56.74
2023-03-04T00:31:37.689Z,57.29
2023-03-04T00:34:04.508Z,57.48
2023-03-04T00:36:31.108Z,57.71
2023-03-04T00:38:57.692Z,57.37
2023-03-04T00:41:24.224Z,58.18
2023-03-04T00:43:51.025Z,58.82
2023-03-04T00:46:17.682Z,58.04
2023-03-04T00:48:44.248Z,58.54
2023-03-04T00:51:10.726Z,58.86
2023-03-04T00:53:37.448Z,58.96
2023-03-04T00:56:04.230Z,58.66
2023-03-04T00:58:31.018Z,58.80
2023-03-04T01:00:58.275Z,58.42
2023-03-04T01:03:26.790Z,57.45
2023-03-04T01:05:53.284Z,56.79
2023-03-04T01:08:19.834Z,56.82
2023-03-04T01:10:46.325Z,56.73
2023-03-04T01:13:12.958Z,56.01
2023-03-04T01:15:39.496Z,55.73
2023-03-04T01:18:06.120Z,55.83
2023-03-04T01:20:32.635Z,56.05
2023-03-04T01:22:59.346Z,56.15
2023-03-04T01:25:25.900Z,56.07
2023-03-04T01:27:52.489Z,56.37
2023-03-04T01:30:19.973Z,56.21
2023-03-04T01:32:46.502Z,55.67
2023-03-04T01:35:12.993Z,56.27
2023-03-04T01:37:39.558Z,56.64
2023-03-04T01:40:06.690Z,56.44
2023-03-04T01:42:35.722Z,55.85
2023-03-04T01:45:02.960Z,55.82
2023-03-04T01:47:32.693Z,56.27
2023-03-04T01:50:02.862Z,56.11
2023-03-04T01:52:29.471Z,56.22
2023-03-04T01:54:57.305Z,56.17
2023-03-04T01:57:26.094Z,57.16
2023-03-04T02:00:25.975Z,56.34
2023-03-04T02:02:55.586Z,56.68
2023-03-04T02:05:22.543Z,56.37
2023-03-04T02:07:51.875Z,55.82
2023-03-04T02:10:18.893Z,56.68
2023-03-04T02:12:45.789Z,56.48
2023-03-04T02:15:12.538Z,56.86
2023-03-04T02:17:39.410Z,56.71
2023-03-04T02:20:09.344Z,56.32
2023-03-04T02:22:40.251Z,57.19
2023-03-04T02:25:14.113Z,57.26
2023-03-04T02:27:40.734Z,57.19
2023-03-04T02:30:07.998Z,56.94
2023-03-04T02:32:34.741Z,56.76
2023-03-04T02:35:01.509Z,56.17
2023-03-04T02:37:28.229Z,56.58
2023-03-04T02:39:55.781Z,56.57
2023-03-04T02:42:22.404Z,56.15
2023-03-04T02:44:50.330Z,56.68
2023-03-04T02:47:19.211Z,56.73
2023-03-04T02:49:47.376Z,57.32
2023-03-04T02:52:19.441Z,58.13
2023-03-04T02:54:46.270Z,58.02
2023-03-04T02:57:14.785Z,58.32
2023-03-04T02:59:43.934Z,57.98
2023-03-04T03:02:15.389Z,58.09
2023-03-04T03:04:42.232Z,57.58
2023-03-04T03:07:12.324Z,57.60
2023-03-04T03:09:39.319Z,56.82
2023-03-04T03:12:06.214Z,57.34
2023-03-04T03:14:33.473Z,56.72
2023-03-04T03:17:00.778Z,57.56
2023-03-04T03:19:27.433Z,56.85
2023-03-04T03:21:54.866Z,56.42
2023-03-04T03:24:21.533Z,57.57
2023-03-04T03:26:48.177Z,56.43
2023-03-04T03:29:14.702Z,56.38
2023-03-04T03:31:41.468Z,56.88
2023-03-04T03:34:08.487Z,57.55
2023-03-04T03:36:35.085Z,57.95
2023-03-04T03:39:01.624Z,58.02
2023-03-04T03:41:28.230Z,58.49
2023-03-04T03:43:54.742Z,57.23
2023-03-04T03:46:21.328Z,57.66
2023-03-04T03:48:47.823Z,56.95
2023-03-04T03:51:14.420Z,57.16
2023-03-04T03:53:40.878Z,57.66
2023-03-04T03:56:07.629Z,57.70
2023-03-04T03:58:34.070Z,57.29
2023-03-04T04:01:00.630Z,57.99
2023-03-04T04:03:27.176Z,58.26
2023-03-04T04:05:53.840Z,57.62
2023-03-04T04:08:20.490Z,58.21
2023-03-04T04:10:47.299Z,58.63
2023-03-04T04:13:14.176Z,58.41
2023-03-04T04:15:40.898Z,57.89
2023-03-04T04:18:07.737Z,58.61
2023-03-04T04:20:35.045Z,59.14
2023-03-04T04:23:02.250Z,60.15
2023-03-04T04:25:29.451Z,59.76
2023-03-04T04:27:55.954Z,58.87
2023-03-04T04:30:22.517Z,58.38
2023-03-04T04:32:49.025Z,58.14
2023-03-04T04:35:15.676Z,58.22
2023-03-04T04:37:42.245Z,59.66
2023-03-04T04:40:09.744Z,59.33
2023-03-04T04:42:36.217Z,60.48
2023-03-04T04:45:03.273Z,60.56
2023-03-04T04:47:29.768Z,61.16
2023-03-04T04:49:56.377Z,60.28
2023-03-04T04:52:22.906Z,60.15
2023-03-04T04:54:49.420Z,60.02
2023-03-04T04:57:15.947Z,60.63
2023-03-04T04:59:42.521Z,59.56
2023-03-04T05:02:09.021Z,60.17
2023-03-04T05:04:35.590Z,59.58
2023-03-04T05:07:02.112Z,60.48
2023-03-04T05:09:28.726Z,59.67
2023-03-04T05:11:55.238Z,59.76
2023-03-04T05:14:22.235Z,59.73
2023-03-04T05:16:48.690Z,59.75
2023-03-04T05:19:15.389Z,59.93
2023-03-04T05:21:41.875Z,59.82
2023-03-04T05:24:08.594Z,60.50
2023-03-04T05:26:35.270Z,60.76
2023-03-04T05:29:02.157Z,60.57
2023-03-04T05:31:28.724Z,60.25
2023-03-04T05:33:55.373Z,60.86
2023-03-04T05:36:22.049Z,61.30
2023-03-04T05:38:48.601Z,60.94
2023-03-04T05:41:15.193Z,61.80
2023-03-04T05:43:44.332Z,61.89
2023-03-04T05:46:15.066Z,62.12
2023-03-04T05:48:42.473Z,61.67
2023-03-04T05:51:09.606Z,62.40
2023-03-04T05:53:40.075Z,62.14
2023-03-04T05:56:11.735Z,62.05
2023-03-04T05:58:38.566Z,61.36
2023-03-04T06:01:05.901Z,60.57
2023-03-04T06:03:33.057Z,61.32
2023-03-04T06:05:59.618Z,61.14
2023-03-04T06:08:27.103Z,61.83
2023-03-04T06:10:55.947Z,61.23
2023-03-04T06:13:23.280Z,61.66
2023-03-04T06:15:54.994Z,61.78
2023-03-04T06:18:22.591Z,62.05
2023-03-04T06:20:49.211Z,61.46
2023-03-04T06:23:16.255Z,61.24
2023-03-04T06:25:42.988Z,61.30
2023-03-04T06:28:09.564Z,62.13
2023-03-04T06:30:36.073Z,62.07
2023-03-04T06:33:02.736Z,61.55
2023-03-04T06:35:29.302Z,61.71
2023-03-04T06:37:55.839Z,61.27
2023-03-04T06:40:22.357Z,61.15
2023-03-04T06:42:48.917Z,61.95
2023-03-04T06:45:15.430Z,62.19
2023-03-04T06:47:42.093Z,62.01
2023-03-04T06:50:09.384Z,62.50
2023-03-04T06:52:36.104Z,62.35
2023-03-04T06:55:02.598Z,62.31
2023-03-04T06:57:29.135Z,62.42
2023-03-04T06:59:55.708Z,62.85
2023-03-04T07:02:22.660Z,63.79
2023-03-04T07:04:49.291Z,63.82
2023-03-04T07:07:15.952Z,62.40
2023-03-04T07:09:42.442Z,62.09
2023-03-04T07:12:09.023Z,62.14
2023-03-04T07:14:35.482Z,62.77
2023-03-04T07:17:02.089Z,63.46
2023-03-04T07:19:28.639Z,64.16
2023-03-04T07:21:55.300Z,64.48
2023-03-04T07:24:21.781Z,65.09
2023-03-04T07:26:48.361Z,64.62
2023-03-04T07:29:15.031Z,64.86
2023-03-04T07:31:41.752Z,64.38
2023-03-04T07:34:12.050Z,65.28
2023-03-04T07:36:38.606Z,64.81
2023-03-04T07:39:06.069Z,65.07
2023-03-04T07:41:36.113Z,63.95
2023-03-04T07:44:03.981Z,64.60
2023-03-04T07:46:30.658Z,64.82
2023-03-04T07:48:57.566Z,65.01
2023-03-04T07:51:25.958Z,66.12
2023-03-04T07:53:56.934Z,65.59
2023-03-04T07:56:26.627Z,65.34
2023-03-04T07:58:53.684Z,65.54
2023-03-04T08:01:32.049Z,65.69
2023-03-04T08:03:59.369Z,65.45
2023-03-04T08:06:27.019Z,66.20
2023-03-04T08:08:59.520Z,65.88
2023-03-04T08:11:27.370Z,66.21
2023-03-04T08:13:54.557Z,65.73
2023-03-04T08:16:23.475Z,66.66
2023-03-04T08:18:53.357Z,66.02
2023-03-04T08:21:22.309Z,66.13
2023-03-04T08:23:50.063Z,65.52
2023-03-04T08:26:30.054Z,65.65
2023-03-04T08:28:57.622Z,66.17
2023-03-04T08:31:24.499Z,67.05
2023-03-04T08:33:52.556Z,67.00
2023-03-04T08:36:19.196Z,67.91
2023-03-04T08:38:45.750Z,69.17
2023-03-04T08:41:12.648Z,70.12
2023-03-04T08:43:39.585Z,72.33
2023-03-04T08:46:06.239Z,73.40
2023-03-04T08:48:33.562Z,74.94
2023-03-04T08:51:00.273Z,75.82
2023-03-04T08:53:26.880Z,76.98
2023-03-04T08:55:53.420Z,77.79
2023-03-04T08:58:20.253Z,77.82
2023-03-04T09:00:48.798Z,78.36
2023-03-04T09:03:16.635Z,78.91
2023-03-04T09:05:44.856Z,78.93
2023-03-04T09:08:11.446Z,79.78
2023-03-04T09:10:37.942Z,78.90
2023-03-04T09:13:06.128Z,79.77
2023-03-04T09:15:35.917Z,77.91
2023-03-04T09:18:03.667Z,77.27
2023-03-04T09:20:31.406Z,78.33
2023-03-04T09:22:58.035Z,79.05
2023-03-04T09:25:24.543Z,79.96
2023-03-04T09:27:51.090Z,79.10
2023-03-04T09:30:17.900Z,78.53
2023-03-04T09:32:44.479Z,78.03
2023-03-04T09:35:11.110Z,79.36
2023-03-04T09:37:41.176Z,80.89
2023-03-04T09:40:16.120Z,81.07
2023-03-04T09:42:50.684Z,81.20
2023-03-04T09:45:23.508Z,82.03
2023-03-04T09:47:53.087Z,81.23
2023-03-04T09:50:20.842Z,81.71
2023-03-04T09:53:17.658Z,82.11
2023-03-04T09:55:50.285Z,83.35
2023-03-04T09:59:13.985Z,84.52
2023-03-04T10:01:52.102Z,83.63
2023-03-04T10:04:26.593Z,84.43
2023-03-04T10:06:54.541Z,83.35
2023-03-04T10:09:47.178Z,83.74
2023-03-04T10:12:17.249Z,83.83
2023-03-04T10:14:51.245Z,84.60
2023-03-04T10:17:43.460Z,85.04
2023-03-04T10:20:21.281Z,84.29
2023-03-04T10:22:57.963Z,84.13
2023-03-04T10:25:27.033Z,84.37
2023-03-04T10:27:58.461Z,84.64
2023-03-04T10:30:49.512Z,85.69
2023-03-04T10:33:22.006Z,85.62
2023-03-04T10:35:55.825Z,86.89
2023-03-04T10:38:23.435Z,88.95
2023-03-04T10:40:50.122Z,87.95
2023-03-04T10:43:21.311Z,88.03
2023-03-04T10:45:49.046Z,89.33
2023-03-04T10:48:27.801Z,89.46
2023-03-04T10:50:54.783Z,90.18
2023-03-04T10:53:39.336Z,89.62
2023-03-04T10:56:46.259Z,88.74
2023-03-04T10:59:36.349Z,88.91
2023-03-04T11:02:16.348Z,86.90
2023-03-04T11:04:48.814Z,89.50
2023-03-04T11:07:15.926Z,89.54
2023-03-04T11:09:44.740Z,88.95
2023-03-04T11:12:14.753Z,88.34
2023-03-04T11:14:53.945Z,89.26
2023-03-04T11:17:29.169Z,87.91
2023-03-04T11:20:30.685Z,88.54
2023-03-04T11:23:04.488Z,86.78
2023-03-04T11:25:35.529Z,88.21
2023-03-04T11:28:43.851Z,88.43
2023-03-04T11:31:20.208Z,87.64
2023-03-04T11:33:56.615Z,88.91
2023-03-04T11:36:31.307Z,89.19
2023-03-04T11:38:58.578Z,89.24
2023-03-04T11:41:35.627Z,89.57
2023-03-04T11:44:06.793Z,89.30
2023-03-04T11:46:42.516Z,89.21
2023-03-04T11:49:33.358Z,89.17
2023-03-04T11:52:12.484Z,89.81
2023-03-04T11:55:20.872Z,91.47
2023-03-04T11:57:55.353Z,90.77
2023-03-04T12:00:40.896Z,89.62
2023-03-04T12:03:46.523Z,91.10
2023-03-04T12:06:35.496Z,89.37
2023-03-04T12:09:26.450Z,89.74
2023-03-04T12:12:35.010Z,90.12
2023-03-04T12:15:19.880Z,90.62
2023-03-04T12:18:08.246Z,91.03
2023-03-04T12:20:37.587Z,91.19
2023-03-04T12:23:04.056Z,91.67
2023-03-04T12:25:43.610Z,91.49
2023-03-04T12:28:36.562Z,91.79
2023-03-04T12:31:30.306Z,92.10
2023-03-04T12:34:33.521Z,91.44
2023-03-04T12:37:15.774Z,92.91
2023-03-04T12:40:09.970Z,92.43
2023-03-04T12:42:39.895Z,92.12
2023-03-04T12:45:22.141Z,92.44
2023-03-04T12:48:07.068Z,92.04
2023-03-04T12:50:39.211Z,92.68
2023-03-04T12:53:33.519Z,91.72
2023-03-04T12:56:02.010Z,91.80
2023-03-04T12:58:32.293Z,91.23
2023-03-04T13:01:25.894Z,91.75
2023-03-04T13:04:01.726Z,88.90
2023-03-04T13:07:00.839Z,88.75
2023-03-04T13:09:38.149Z,89.60
2023-03-04T13:12:21.980Z,89.80
2023-03-04T13:15:12.274Z,88.78
2023-03-04T13:18:03.818Z,89.21
2023-03-04T13:20:30.369Z,88.18
2023-03-04T13:23:04.287Z,87.52
2023-03-04T13:25:48.284Z,88.18
2023-03-04T13:28:19.085Z,87.28
2023-03-04T13:30:45.557Z,85.81
2023-03-04T13:33:13.418Z,86.62
2023-03-04T13:35:49.202Z,84.67
2023-03-04T13:38:28.367Z,86.27
2023-03-04T13:41:14.672Z,84.41
2023-03-04T13:43:55.858Z,83.76
2023-03-04T13:46:27.385Z,81.98
2023-03-04T13:48:57.033Z,81.81
2023-03-04T13:51:41.267Z,81.91
2023-03-04T13:54:15.863Z,81.33
2023-03-04T13:56:47.773Z,80.02
2023-03-04T13:59:20.309Z,80.79
2023-03-04T14:01:46.842Z,81.14
2023-03-04T14:04:16.099Z,79.94
2023-03-04T14:06:44.807Z,79.36
2023-03-04T14:09:16.469Z,78.47
2023-03-04T14:11:43.969Z,75.43
2023-03-04T14:14:14.739Z,74.38
2023-03-04T14:16:50.217Z,73.77
2023-03-04T14:19:27.782Z,73.52
2023-03-04T14:21:54.681Z,73.02
2023-03-04T14:24:22.524Z,72.47
2023-03-04T14:26:49.948Z,71.17
2023-03-04T14:29:29.288Z,72.14
2023-03-04T14:31:57.949Z,72.04
2023-03-04T14:34:46.977Z,70.98
2023-03-04T14:37:31.174Z,71.14
2023-03-04T14:39:58.794Z,70.27
2023-03-04T14:42:31.984Z,69.35
2023-03-04T14:45:01.081Z,68.18
2023-03-04T14:47:45.331Z,68.13
2023-03-04T14:50:22.338Z,66.99
2023-03-04T14:52:51.947Z,66.76
2023-03-04T14:55:22.817Z,66.42
2023-03-04T14:58:00.765Z,66.51
2023-03-04T15:00:36.048Z,66.14
2023-03-04T15:03:23.653Z,65.53
2023-03-04T15:05:52.715Z,65.15
2023-03-04T15:08:29.362Z,63.89
2023-03-04T15:10:59.852Z,63.32
2023-03-04T15:13:46.495Z,62.99
2023-03-04T15:16:16.462Z,61.92
2023-03-04T15:19:05.750Z,61.71
2023-03-04T15:21:40.901Z,61.23
2023-03-04T15:24:09.402Z,61.75
2023-03-04T15:26:40.080Z,60.25
2023-03-04T15:29:14.758Z,59.40
2023-03-04T15:31:43.557Z,60.06
2023-03-04T15:34:15.178Z,61.39
2023-03-04T15:36:45.434Z,60.58
2023-03-04T15:39:16.195Z,60.67
2023-03-04T15:41:43.326Z,60.19
2023-03-04T15:44:11.680Z,58.54
2023-03-04T15:46:38.427Z,58.75
2023-03-04T15:49:05.078Z,57.29
2023-03-04T15:51:31.730Z,57.70
2023-03-04T15:53:59.954Z,57.48
2023-03-04T15:56:29.878Z,57.62
2023-03-04T15:59:02.313Z,57.59
2023-03-04T16:01:29.634Z,56.63
2023-03-04T16:03:56.477Z,57.58
2023-03-04T16:06:27.480Z,57.43
2023-03-04T16:08:54.019Z,57.34
2023-03-04T16:11:23.139Z,57.18
2023-03-04T16:13:49.849Z,57.54
2023-03-04T16:16:17.156Z,57.29
2023-03-04T16:18:44.951Z,56.11
2023-03-04T16:21:18.235Z,56.45
2023-03-04T16:23:47.635Z,56.68
2023-03-04T16:26:17.031Z,56.88
2023-03-04T16:28:44.345Z,56.29
2023-03-04T16:31:13.194Z,56.46
2023-03-04T16:33:40.200Z,56.98
2023-03-04T16:36:15.699Z,56.64
2023-03-04T16:38:43.031Z,56.60
2023-03-04T16:41:15.087Z,57.90
2023-03-04T16:43:42.879Z,57.03
2023-03-04T16:46:13.933Z,57.19
2023-03-04T16:48:40.938Z,57.10
2023-03-04T16:51:19.369Z,57.04
2023-03-04T16:53:56.387Z,57.15
2023-03-04T16:56:23.551Z,57.92
2023-03-04T16:58:50.121Z,57.90
2023-03-04T17:01:20.439Z,57.15
2023-03-04T17:03:47.286Z,57.49
2023-03-04T17:06:15.346Z,57.90
2023-03-04T17:08:42.226Z,58.16
2023-03-04T17:11:12.363Z,58.55
2023-03-04T17:13:39.059Z,59.04
2023-03-04T17:16:05.907Z,58.94
2023-03-04T17:18:32.885Z,58.23
2023-03-04T17:21:04.814Z,57.95
2023-03-04T17:23:31.434Z,58.44
2023-03-04T17:25:59.125Z,58.96
2023-03-04T17:28:26.072Z,58.67
2023-03-04T17:30:52.762Z,58.36
2023-03-04T17:33:19.750Z,58.20
2023-03-04T17:35:46.612Z,57.97
2023-03-04T17:38:14.394Z,57.16
2023-03-04T17:40:41.525Z,56.62
2023-03-04T17:43:11.407Z,56.48
2023-03-04T17:45:42.080Z,57.01
2023-03-04T17:48:14.951Z,56.47
2023-03-04T17:50:49.690Z,55.57
2023-03-04T17:53:16.537Z,55.78
2023-03-04T17:55:54.357Z,55.44
2023-03-04T17:58:21.468Z,55.54
2023-03-04T18:00:49.529Z,55.83
2023-03-04T18:03:16.778Z,55.56
2023-03-04T18:05:43.348Z,55.63
2023-03-04T18:08:09.889Z,55.25
2023-03-04T18:10:36.695Z,54.98
2023-03-04T18:13:03.351Z,55.27
2023-03-04T18:15:30.119Z,55.81
2023-03-04T18:17:56.644Z,56.90
2023-03-04T18:20:23.130Z,56.89
2023-03-04T18:22:49.691Z,54.97
2023-03-04T18:25:16.794Z,55.44
2023-03-04T18:27:43.845Z,55.56
2023-03-04T18:30:13.805Z,55.65
2023-03-04T18:32:51.423Z,55.39
2023-03-04T18:35:19.773Z,55.19
2023-03-04T18:37:47.012Z,55.23
2023-03-04T18:40:14.412Z,55.06
2023-03-04T18:42:44.062Z,54.38
2023-03-04T18:45:12.745Z,54.46
2023-03-04T18:47:41.710Z,54.87
2023-03-04T18:50:09.604Z,54.91
2023-03-04T18:52:36.712Z,55.26
2023-03-04T18:55:03.636Z,54.93
2023-03-04T18:57:30.882Z,56.12
2023-03-04T18:59:59.964Z,56.48
2023-03-04T19:02:36.435Z,56.46
2023-03-04T19:05:07.472Z,56.15
2023-03-04T19:07:34.033Z,56.13
2023-03-04T19:10:00.499Z,56.60
2023-03-04T19:12:27.146Z,56.73
2023-03-04T19:14:53.637Z,55.94
2023-03-04T19:17:20.174Z,54.72
2023-03-04T19:19:46.688Z,54.72
2023-03-04T19:22:13.219Z,54.67
2023-03-04T19:24:39.826Z,54.14
2023-03-04T19:27:06.403Z,54.35
2023-03-04T19:29:32.940Z,54.85
2023-03-04T19:31:59.668Z,54.25
2023-03-04T19:34:26.187Z,54.37
2023-03-04T19:36:52.736Z,54.56
2023-03-04T19:39:19.418Z,55.23
2023-03-04T19:41:46.046Z,55.25
2023-03-04T19:44:12.532Z,55.04
2023-03-04T19:46:39.112Z,54.69
2023-03-04T19:49:05.796Z,54.77
2023-03-04T19:51:32.733Z,54.99
2023-03-04T19:54:00.056Z,55.12
2023-03-04T19:56:26.618Z,54.81
2023-03-04T19:58:56.700Z,55.14
2023-03-04T20:01:28.163Z,55.29
2023-03-04T20:03:56.698Z,54.74
2023-03-04T20:06:23.895Z,54.40
2023-03-04T20:08:51.285Z,54.73
2023-03-04T20:11:19.026Z,55.08
2023-03-04T20:13:45.674Z,54.46
2023-03-04T20:16:13.027Z,54.92
2023-03-04T20:18:40.597Z,54.68
2023-03-04T20:21:07.767Z,55.25
2023-03-04T20:23:34.995Z,54.74
2023-03-04T20:26:01.865Z,54.86
2023-03-04T20:28:28.732Z,55.37
2023-03-04T20:31:26.181Z,55.33
2023-03-04T20:33:54.511Z,55.64
2023-03-04T20:36:23.725Z,55.79
2023-03-04T20:38:57.971Z,55.61
2023-03-04T20:41:28.311Z,55.45
2023-03-04T20:43:54.819Z,55.57
2023-03-04T20:46:38.886Z,55.65
2023-03-04T20:49:09.008Z,55.59
2023-03-04T20:51:36.357Z,55.80
2023-03-04T20:54:04.045Z,55.73
2023-03-04T20:56:31.385Z,56.18
2023-03-04T20:59:00.512Z,56.22
2023-03-04T21:01:27.125Z,56.32
2023-03-04T21:03:53.871Z,56.61
2023-03-04T21:06:20.407Z,56.33
2023-03-04T21:08:47.133Z,56.07
2023-03-04T21:11:15.330Z,56.31
2023-03-04T21:13:42.993Z,56.50
2023-03-04T21:16:14.823Z,55.69
2023-03-04T21:18:43.292Z,55.74
2023-03-04T21:21:24.966Z,56.17
2023-03-04T21:23:53.488Z,55.45
2023-03-04T21:26:22.153Z,56.04
2023-03-04T21:28:49.581Z,55.70
2023-03-04T21:31:20.657Z,55.42
2023-03-04T21:33:47.536Z,55.91
2023-03-04T21:36:14.607Z,55.83
2023-03-04T21:38:42.682Z,54.68
2023-03-04T21:41:17.279Z,54.71
2023-03-04T21:43:44.242Z,55.42
2023-03-04T21:46:12.501Z,55.25
2023-03-04T21:48:39.240Z,55.32
2023-03-04T21:51:08.037Z,55.31
2023-03-04T21:53:35.483Z,55.14
2023-03-04T21:56:03.033Z,54.66
2023-03-04T21:58:30.394Z,54.57
2023-03-04T22:00:58.874Z,54.69
2023-03-04T22:03:27.003Z,53.83
2023-03-04T22:05:53.504Z,54.28
2023-03-04T22:08:20.978Z,54.30
2023-03-04T22:10:47.840Z,54.40
2023-03-04T22:13:15.553Z,54.23
2023-03-04T22:15:45.442Z,54.37
2023-03-04T22:18:14.273Z,54.35
2023-03-04T22:20:43.484Z,54.17
2023-03-04T22:23:10.744Z,54.93
2023-03-04T22:25:40.678Z,56.06
2023-03-04T22:28:08.512Z,55.69
2023-03-04T22:30:35.707Z,56.85
2023-03-04T22:33:02.454Z,56.95
2023-03-04T22:35:29.095Z,57.91
2023-03-04T22:37:55.678Z,57.34
2023-03-04T22:40:22.436Z,58.68
2023-03-04T22:42:49.555Z,58.91
2023-03-04T22:45:17.790Z,59.48
2023-03-04T22:47:50.226Z,59.24
2023-03-04T22:50:18.390Z,59.08
2023-03-04T22:52:47.106Z,59.01
2023-03-04T22:55:15.645Z,59.04
2023-03-04T22:57:43.025Z,58.68
2023-03-04T23:00:30.680Z,59.96
2023-03-04T23:02:58.264Z,60.39
2023-03-04T23:05:25.052Z,60.74
2023-03-04T23:07:52.314Z,60.90
2023-03-04T23:10:22.419Z,60.95
2023-03-04T23:12:49.779Z,60.91
2023-03-04T23:15:18.481Z,61.24
2023-03-04T23:17:46.110Z,61.68
2023-03-04T23:20:16.202Z,61.70
2023-03-04T23:22:43.380Z,61.53
2023-03-04T23:25:10.070Z,61.70
2023-03-04T23:27:38.323Z,62.18
2023-03-04T23:30:07.244Z,61.82
2023-03-04T23:32:33.847Z,61.36
2023-03-04T23:35:00.424Z,62.59
2023-03-04T23:37:27.351Z,63.32
2023-03-04T23:39:53.887Z,64.11
2023-03-04T23:42:20.424Z,64.44
2023-03-04T23:44:46.892Z,65.21
2023-03-04T23:47:13.431Z,66.22
2023-03-04T23:49:40.046Z,66.46
2023-03-04T23:52:06.827Z,67.55
2023-03-04T23:54:33.458Z,67.97
2023-03-04T23:57:00.837Z,67.45
2023-03-04T23:59:28.604Z,67.33
